Time;durP1;ratioP1;P1;durP2;ratioP2;P2;SDS_P1;SDS_P2;PMS_P1;PMS_P2;Temp;Humidity;BMP_temperature;BMP_pressure;BME280_temperature;BME280_humidity;BME280_pressure;Samples;Min_cycle;Max_cycle;Signal;HPM_P1;HPM_P2
2022/02/09 00:00:00;;;;;;;3.97;1.90;;;;;;;7.09;100.00;101131.16;5093063;28;20040;-75
2022/02/09 00:08:02;;;;;;;3.50;1.65;;;;;;;7.12;100.00;101154.91;5092040;28;20044;-75
2022/02/09 00:10:33;;;;;;;4.30;1.73;;;;;;;7.14;100.00;101159.28;5092442;28;20040;-76
2022/02/09 00:13:23;;;;;;;3.22;1.92;;;;;;;7.13;100.00;101167.25;5092798;28;20036;-75
2022/02/09 00:15:59;;;;;;;4.68;1.80;;;;;;;7.14;100.00;101214.09;5074809;28;20543;-75
2022/02/09 00:18:35;;;;;;;4.20;1.90;;;;;;;7.12;100.00;101171.69;5092280;28;20139;-76
2022/02/09 00:21:29;;;;;;;2.50;1.67;;;;;;;7.13;100.00;101172.56;5092474;28;20044;-75
2022/02/09 00:27:36;;;;;;;5.10;1.90;;;;;;;7.12;100.00;101186.75;5037200;28;20056;-75
2022/02/09 00:30:30;;;;;;;4.22;1.70;;;;;;;7.10;100.00;101175.31;5096424;28;20495;-75
2022/02/09 00:33:25;;;;;;;5.22;1.80;;;;;;;7.10;100.00;101162.94;5096069;28;20044;-74
2022/02/09 00:36:16;;;;;;;3.95;1.60;;;;;;;7.10;100.00;101177.97;5096502;28;20051;-75
2022/02/09 00:41:48;;;;;;;3.72;1.88;;;;;;;7.06;100.00;101177.22;5090622;28;20056;-75
2022/02/09 01:12:23;;;;;;;5.00;2.20;;;;;;;7.21;100.00;101206.81;5095448;28;20419;-74
2022/02/09 01:40:00;;;;;;;3.85;1.65;;;;;;;7.16;100.00;101169.84;5094620;28;20040;-75
2022/02/09 01:51:19;;;;;;;3.72;1.80;;;;;;;7.25;100.00;101198.75;5094288;28;20128;-76
2022/02/09 01:56:35;;;;;;;4.85;1.50;;;;;;;7.29;100.00;101205.69;5063562;28;20048;-77
2022/02/09 01:59:05;;;;;;;4.80;2.20;;;;;;;7.30;100.00;101207.41;5094591;28;20064;-75
2022/02/09 02:01:34;;;;;;;4.32;1.83;;;;;;;7.32;100.00;101213.53;5094703;28;20040;-76
2022/02/09 02:04:03;;;;;;;4.00;1.55;;;;;;;7.29;100.00;101216.28;5094626;28;20036;-74
2022/02/09 02:06:33;;;;;;;8.07;2.05;;;;;;;7.25;100.00;101214.66;5094272;28;20040;-74
2022/02/09 02:09:06;;;;;;;3.72;1.85;;;;;;;7.28;100.00;101206.59;5094191;28;20044;-74
2022/02/09 02:11:40;;;;;;;4.75;1.90;;;;;;;7.33;100.00;101211.75;5094162;28;20040;-78
2022/02/09 02:14:20;;;;;;;3.53;1.75;;;;;;;7.31;100.00;101209.13;5094413;28;20401;-73
2022/02/09 02:16:53;;;;;;;3.20;1.83;;;;;;;7.35;100.00;101212.59;5094459;28;20040;-74
2022/02/09 02:19:32;;;;;;;;;;;;;;;7.33;100.00;101215.25;5094881;28;20040;-74
2022/02/09 02:22:15;;;;;;;5.03;2.00;;;;;;;7.30;100.00;101215.38;5094022;28;19919;-74
2022/02/09 02:25:10;;;;;;;3.63;1.80;;;;;;;7.36;100.00;101216.97;5093926;28;20044;-74
2022/02/09 02:30:41;;;;;;;4.65;2.00;;;;;;;7.37;100.00;101218.72;5093941;28;20043;-73
2022/02/09 02:33:24;;;;;;;4.70;2.08;;;;;;;7.37;100.00;101222.22;5093748;28;20048;-75
2022/02/09 02:36:25;;;;;;;5.03;1.90;;;;;;;7.35;100.00;101220.56;5093748;28;20072;-75
2022/02/09 02:59:16;;;;;;;2.67;1.65;;;;;;;7.32;100.00;101212.66;5093579;28;20050;-76
2022/02/09 03:10:32;;;;;;;4.70;1.90;;;;;;;7.28;100.00;101225.16;5092977;28;20040;-76
2022/02/09 03:13:06;;;;;;;3.95;1.90;;;;;;;7.23;100.00;101221.78;5093134;28;20044;-76
2022/02/09 03:15:39;;;;;;;5.75;2.28;;;;;;;7.25;100.00;101209.34;5093444;28;20075;-76
2022/02/09 03:18:33;;;;;;;4.30;2.28;;;;;;;7.23;100.00;101211.16;5093605;28;20048;-76
2022/02/09 03:21:13;;;;;;;4.68;1.80;;;;;;;7.23;100.00;101221.78;5092820;28;20118;-76
2022/02/09 03:23:47;;;;;;;3.83;1.92;;;;;;;7.24;100.00;101220.00;5093141;28;20040;-75
2022/02/09 03:43:28;;;;;;;3.95;1.80;;;;;;;7.16;100.00;101225.56;5092956;28;20036;-75
2022/02/09 03:46:14;;;;;;;4.82;2.00;;;;;;;7.16;100.00;101236.16;5092711;28;20123;-75
2022/02/09 03:48:58;;;;;;;4.28;2.03;;;;;;;7.20;100.00;101237.81;5092854;28;20048;-73
2022/02/09 03:51:48;;;;;;;4.32;2.17;;;;;;;7.19;100.00;101233.41;5092719;28;20044;-72
2022/02/09 03:54:25;;;;;;;4.28;2.20;;;;;;;7.13;100.00;101231.81;5092500;28;20059;-73
2022/02/09 03:57:00;;;;;;;4.05;1.95;;;;;;;7.17;100.00;101243.22;5092751;28;20085;-75
2022/02/09 03:59:31;;;;;;;4.97;2.20;;;;;;;7.15;100.00;101245.91;5093834;28;20044;-75
2022/02/09 04:02:03;;;;;;;3.88;1.70;;;;;;;7.18;100.00;101248.47;5096443;28;20044;-75
2022/02/09 04:04:32;;;;;;;3.53;1.90;;;;;;;7.22;100.00;101246.56;5097074;28;20044;-74
2022/02/09 04:07:02;;;;;;;5.32;2.10;;;;;;;7.24;100.00;101255.38;5096598;28;20071;-75
2022/02/09 04:09:32;;;;;;;4.18;2.03;;;;;;;7.25;100.00;101251.81;5096697;28;20127;-74
2022/02/09 04:12:09;;;;;;;4.22;2.00;;;;;;;7.22;100.00;101251.03;5096245;28;20036;-75
2022/02/09 04:14:47;;;;;;;6.28;2.25;;;;;;;7.20;100.00;101243.09;5096490;28;20054;-75
2022/02/09 04:17:28;;;;;;;5.20;1.90;;;;;;;7.22;100.00;101265.16;5096546;28;20055;-75
2022/02/09 04:20:25;;;;;;;3.85;1.90;;;;;;;7.19;100.00;101254.66;5096394;28;20047;-75
2022/02/09 04:36:03;;;;;;;2.72;1.75;;;;;;;7.16;100.00;101254.75;5096239;28;20508;-75
2022/02/09 04:37:07;;;;;;;4.60;2.20;;;;;;;7.00;100.00;101261.41;5096232;28;20063;-75
2022/02/09 04:39:45;;;;;;;3.40;1.83;;;;;;;6.94;100.00;101262.44;5096079;28;20050;-75
2022/02/09 04:45:30;;;;;;;3.70;2.00;;;;;;;6.89;100.00;101244.03;5096003;28;20063;-75
2022/02/09 04:48:00;;;;;;;3.40;1.83;;;;;;;6.93;100.00;101270.44;5095790;28;20040;-76
2022/02/09 04:50:33;;;;;;;3.00;1.60;;;;;;;6.88;100.00;101268.81;5096362;28;20044;-76
2022/02/09 04:53:18;;;;;;;;;;;;;;;6.91;100.00;101269.63;5096129;28;20036;-76
2022/02/09 04:55:58;;;;;;;6.30;1.80;;;;;;;6.92;100.00;101266.06;5095747;28;19963;-77
2022/02/09 04:58:42;;;;;;;8.40;1.90;;;;;;;6.89;100.00;101272.34;5096101;28;20374;-75
2022/02/09 05:01:38;;;;;;;5.78;1.85;;;;;;;6.85;100.00;101268.00;5095914;28;20040;-75
2022/02/09 05:04:21;;;;;;;5.30;1.95;;;;;;;6.89;100.00;101275.00;5095646;28;20042;-74
2022/02/09 05:18:09;;;;;;;3.65;1.90;;;;;;;6.79;100.00;101254.94;5095101;28;20040;-75
2022/02/09 05:23:48;;;;;;;5.65;2.08;;;;;;;6.76;100.00;101263.88;5032718;28;20061;-78
2022/02/09 05:26:25;;;;;;;5.15;2.22;;;;;;;6.77;100.00;101270.91;5086342;28;20089;-78
2022/02/09 05:28:54;;;;;;;3.33;1.83;;;;;;;6.74;100.00;101259.50;5094771;28;20047;-75
2022/02/09 05:31:22;;;;;;;2.90;1.70;;;;;;;6.75;100.00;101264.75;5095337;28;20036;-75
2022/02/09 05:33:52;;;;;;;2.40;1.50;;;;;;;6.77;100.00;101256.78;5094943;28;20478;-75
2022/02/09 05:36:20;;;;;;;3.72;1.98;;;;;;;6.74;100.00;101268.31;5095031;28;20040;-75
2022/02/09 05:38:50;;;;;;;4.85;1.60;;;;;;;6.73;100.00;101255.13;5094527;28;20127;-78
2022/02/09 05:41:18;;;;;;;3.00;1.67;;;;;;;6.72;100.00;101261.34;5077175;28;20134;-75
2022/02/09 05:43:46;;;;;;;4.15;2.30;;;;;;;6.65;100.00;101255.31;5095018;28;20054;-76
2022/02/09 05:46:57;;;;;;;6.13;2.72;;;;;;;6.62;100.00;101266.03;5095082;28;20039;-76
2022/02/09 05:49:35;;;;;;;6.30;2.57;;;;;;;6.62;100.00;101260.72;5094639;28;20089;-74
2022/02/09 05:52:15;;;;;;;6.35;2.70;;;;;;;6.61;100.00;101256.34;5094303;28;20383;-75
2022/02/09 05:55:06;;;;;;;6.28;2.50;;;;;;;6.61;100.00;101266.94;5094922;28;20043;-75
2022/02/09 05:57:46;;;;;;;4.53;2.33;;;;;;;6.64;100.00;101274.78;5094844;28;20040;-75
2022/02/09 06:00:15;;;;;;;3.53;2.13;;;;;;;6.59;100.00;101266.13;5093993;28;20185;-77
2022/02/09 06:02:43;;;;;;;5.65;2.75;;;;;;;6.57;100.00;101278.56;5094214;28;20044;-77
2022/02/09 06:05:13;;;;;;;4.28;2.22;;;;;;;6.70;100.00;101294.97;5093923;28;20043;-77
2022/02/09 06:07:41;;;;;;;4.43;2.35;;;;;;;6.62;100.00;101302.28;5094180;28;20074;-76
2022/02/09 06:10:17;;;;;;;5.65;2.47;;;;;;;6.71;100.00;101302.88;5093986;28;20044;-75
2022/02/09 06:12:51;;;;;;;4.50;2.35;;;;;;;6.59;100.00;101303.22;5094387;28;20046;-76
2022/02/09 06:20:53;;;;;;;5.60;2.40;;;;;;;6.84;100.00;101314.88;5093913;28;20036;-74
2022/02/09 06:23:22;;;;;;;5.47;2.47;;;;;;;6.85;100.00;101319.31;5093324;28;20075;-75
2022/02/09 06:25:52;;;;;;;5.15;2.25;;;;;;;6.95;100.00;101322.56;5094192;28;20040;-74
2022/02/09 06:28:20;;;;;;;4.53;2.47;;;;;;;7.01;100.00;101329.47;5093816;28;20048;-75
2022/02/09 06:30:48;;;;;;;4.45;2.28;;;;;;;7.02;100.00;101328.56;5093684;28;20039;-74
2022/02/09 06:33:16;;;;;;;4.95;2.40;;;;;;;7.14;100.00;101338.81;5093510;28;20058;-76
2022/02/09 06:35:47;;;;;;;6.57;2.60;;;;;;;7.23;100.00;101337.66;5093538;28;20036;-71
2022/02/09 06:38:17;;;;;;;4.27;2.20;;;;;;;7.35;100.00;101356.78;5093665;28;20075;-73
2022/02/09 06:40:46;;;;;;;6.85;2.63;;;;;;;7.37;100.00;101351.44;5093765;28;20123;-72
2022/02/09 06:43:16;;;;;;;5.80;2.30;;;;;;;7.40;100.00;101354.84;5093115;28;20048;-73
2022/02/09 06:45:44;;;;;;;5.63;2.40;;;;;;;7.37;100.00;101360.25;5093513;28;20094;-73
2022/02/09 06:48:13;;;;;;;4.05;2.10;;;;;;;7.42;100.00;101355.66;5093735;28;20036;-74
2022/02/09 06:50:45;;;;;;;5.43;2.72;;;;;;;7.41;100.00;101364.53;5093341;28;20040;-73
2022/02/09 06:53:28;;;;;;;4.22;2.15;;;;;;;7.39;100.00;101361.06;5093427;28;20814;-72
2022/02/09 06:55:58;;;;;;;4.32;2.30;;;;;;;7.37;100.00;101370.00;5093402;28;20043;-73
2022/02/09 06:58:45;;;;;;;4.82;2.03;;;;;;;7.45;100.00;101365.34;5090709;28;20400;-72
2022/02/09 07:01:13;;;;;;;4.32;2.40;;;;;;;7.44;100.00;101364.47;5086369;28;20071;-72
2022/02/09 07:03:42;;;;;;;6.72;2.00;;;;;;;7.43;100.00;101362.75;5092449;28;20048;-74
2022/02/09 07:06:11;;;;;;;3.35;1.88;;;;;;;7.45;100.00;101371.53;5094207;28;20055;-77
2022/02/09 07:08:39;;;;;;;5.38;2.20;;;;;;;7.38;100.00;101369.09;5097649;28;20048;-72
2022/02/09 07:11:09;;;;;;;3.92;1.80;;;;;;;7.45;100.00;101363.56;5092149;28;20144;-73
2022/02/09 07:13:38;;;;;;;3.42;1.90;;;;;;;7.50;100.00;101363.41;5092065;28;20044;-71
2022/02/09 07:16:07;;;;;;;3.78;2.22;;;;;;;7.52;100.00;101377.50;5092268;28;20067;-71
2022/02/09 07:18:37;;;;;;;4.18;2.13;;;;;;;7.48;100.00;101373.22;5091954;28;20050;-74
2022/02/09 07:21:10;;;;;;;4.43;2.35;;;;;;;7.59;100.00;101372.88;5092050;28;20070;-72
2022/02/09 07:23:42;;;;;;;4.47;2.15;;;;;;;7.66;100.00;101379.75;5092513;28;20056;-73
2022/02/09 07:26:13;;;;;;;6.70;2.38;;;;;;;7.78;100.00;101368.75;5092434;28;20074;-76
2022/02/09 07:28:42;;;;;;;4.18;2.13;;;;;;;7.93;100.00;101370.06;5092135;28;20044;-75
2022/02/09 07:31:14;;;;;;;2.85;1.83;;;;;;;8.08;100.00;101371.34;5092419;28;20044;-75
2022/02/09 07:33:44;;;;;;;5.70;2.13;;;;;;;8.22;100.00;101375.31;5092368;28;20078;-74
2022/02/09 07:36:15;;;;;;;4.95;1.85;;;;;;;8.29;100.00;101362.69;5091949;28;20480;-75
2022/02/09 07:38:45;;;;;;;5.63;1.90;;;;;;;8.31;100.00;101375.03;5092638;28;20070;-74
2022/02/09 07:41:14;;;;;;;4.90;2.00;;;;;;;8.20;100.00;101365.63;5092023;28;20051;-73
2022/02/09 07:43:49;;;;;;;6.00;2.10;;;;;;;8.19;100.00;101374.53;5092157;28;20040;-74
2022/02/09 07:46:29;;;;;;;5.47;2.20;;;;;;;8.21;100.00;101372.72;5092156;28;20048;-72
2022/02/09 07:49:07;;;;;;;5.43;2.30;;;;;;;8.24;100.00;101372.63;5091830;28;20044;-72
2022/02/09 07:51:41;;;;;;;7.07;1.83;;;;;;;8.26;100.00;101373.44;5092614;28;20393;-72
2022/02/09 07:54:10;;;;;;;4.55;1.98;;;;;;;8.26;100.00;101370.78;5074581;28;20059;-74
2022/02/09 07:56:40;;;;;;;3.03;1.92;;;;;;;8.19;100.00;101363.91;5091889;28;20067;-73
2022/02/09 07:59:12;;;;;;;3.95;2.03;;;;;;;8.09;100.00;101363.34;5091573;28;20436;-73
2022/02/09 08:01:42;;;;;;;6.13;2.40;;;;;;;8.15;100.00;101367.59;5092598;28;20055;-72
2022/02/09 08:04:10;;;;;;;4.45;1.88;;;;;;;8.07;100.00;101359.00;5091877;28;20052;-76
2022/02/09 08:06:40;;;;;;;6.40;2.20;;;;;;;8.10;100.00;101362.41;5092224;28;20052;-75
2022/02/09 08:09:15;;;;;;;3.65;1.90;;;;;;;7.97;100.00;101363.72;5091333;28;20052;-76
2022/02/09 08:11:51;;;;;;;3.28;1.80;;;;;;;8.08;100.00;101350.09;5092402;28;20047;-75
2022/02/09 08:28:46;;;;;;;4.25;2.20;;;;;;;8.21;100.00;101370.94;5091293;28;20506;-75
2022/02/09 08:34:02;;;;;;;3.63;2.33;;;;;;;8.29;100.00;101366.22;5091974;28;20040;-76
2022/02/09 08:36:30;;;;;;;5.45;2.40;;;;;;;8.38;100.00;101361.53;5091069;28;20052;-71
2022/02/09 08:38:59;;;;;;;7.00;2.40;;;;;;;8.37;100.00;101371.31;5088371;28;20048;-71
2022/02/09 08:41:27;;;;;;;5.18;2.40;;;;;;;8.39;100.00;101361.50;5090894;28;20190;-71
2022/02/09 08:43:56;;;;;;;3.50;2.38;;;;;;;8.45;100.00;101363.09;5091720;28;20493;-70
2022/02/09 08:46:25;;;;;;;3.63;2.20;;;;;;;8.52;100.00;101362.84;5092075;28;20086;-71
2022/02/09 08:48:55;;;;;;;4.40;2.28;;;;;;;8.56;100.00;101353.81;5095195;28;20077;-72
2022/02/09 08:51:24;;;;;;;3.38;2.00;;;;;;;8.64;100.00;101350.03;5095121;28;20504;-69
2022/02/09 08:53:53;;;;;;;3.38;1.83;;;;;;;8.62;100.00;101362.53;5095101;28;20044;-70
2022/02/09 08:56:23;;;;;;;4.07;2.22;;;;;;;8.74;100.00;101362.09;5077230;28;20079;-77
2022/02/09 08:58:51;;;;;;;4.55;2.30;;;;;;;8.80;100.00;101353.91;5095006;28;20040;-75
2022/02/09 09:01:31;;;;;;;5.10;2.30;;;;;;;8.69;100.00;101348.09;5095551;28;20040;-75
2022/02/09 09:04:07;;;;;;;4.22;1.90;;;;;;;8.73;100.00;101355.03;5095041;28;20550;-76
2022/02/09 09:06:40;;;;;;;5.10;2.40;;;;;;;8.69;100.00;101354.28;5095480;28;20110;-75
2022/02/09 09:09:25;;;;;;;4.72;2.08;;;;;;;8.82;100.00;101363.56;5092523;28;20060;-75
2022/02/09 09:14:52;;;;;;;4.45;2.40;;;;;;;8.87;100.00;101353.59;5094947;28;20051;-77
2022/02/09 10:02:35;;;;;;;3.97;1.90;;;;;;;9.55;100.00;101359.97;5093705;28;20051;-78
2022/02/09 10:05:36;;;;;;;4.47;1.77;;;;;;;9.68;100.00;101355.06;5079730;28;20040;-77
2022/02/09 10:30:51;;;;;;;2.78;1.58;;;;;;;9.70;100.00;101346.06;5079961;28;20044;-70
2022/02/09 10:31:30;;;;;;;2.95;1.70;;;;;;;9.75;100.00;101314.78;5073017;28;20043;-71
2022/02/09 10:34:02;;;;;;;2.50;1.60;;;;;;;9.73;100.00;101308.63;5086472;28;20521;-72
2022/02/09 10:36:32;;;;;;;1.73;1.10;;;;;;;9.70;100.00;101303.44;5092950;28;20046;-71
2022/02/09 10:39:07;;;;;;;10.38;2.10;;;;;;;9.83;100.00;101300.28;5092324;28;20044;-71
2022/02/09 10:41:44;;;;;;;3.80;1.70;;;;;;;9.89;100.00;101292.03;5092522;28;20055;-70
2022/02/09 10:44:17;;;;;;;2.80;1.70;;;;;;;9.96;100.00;101289.06;5097161;28;20040;-71
2022/02/09 10:46:51;;;;;;;4.60;1.90;;;;;;;9.94;100.00;101292.69;5093071;28;20062;-76
2022/02/09 10:49:23;;;;;;;3.92;1.85;;;;;;;9.94;100.00;101287.38;5092217;28;20515;-73
2022/02/09 10:52:04;;;;;;;3.95;1.73;;;;;;;9.89;100.00;101281.38;5092843;28;20085;-76
2022/02/09 10:54:36;;;;;;;3.83;1.60;;;;;;;10.11;100.00;101286.69;5092821;28;20527;-73
2022/02/09 10:57:08;;;;;;;4.15;1.63;;;;;;;10.16;100.00;101274.91;5092723;28;20039;-74
2022/02/09 10:59:40;;;;;;;3.50;1.67;;;;;;;10.14;100.00;101278.56;5090438;28;20079;-75
2022/02/09 11:02:11;;;;;;;4.00;1.90;;;;;;;10.09;100.00;101286.75;5092932;28;20036;-75
2022/02/09 11:04:42;;;;;;;5.13;1.80;;;;;;;10.08;100.00;101277.03;5092326;28;20036;-74
2022/02/09 11:07:11;;;;;;;3.00;1.70;;;;;;;10.10;100.00;101279.63;5092878;28;20044;-74
2022/02/09 11:09:39;;;;;;;3.92;1.88;;;;;;;10.08;100.00;101273.50;5091556;28;20051;-75
2022/02/09 11:12:08;;;;;;;3.15;1.73;;;;;;;10.16;100.00;101269.56;5093122;28;20044;-75
2022/02/09 11:14:42;;;;;;;4.13;1.83;;;;;;;10.17;100.00;101265.97;5092180;28;20381;-75
2022/02/09 11:17:12;;;;;;;3.70;2.25;;;;;;;10.12;100.00;101267.94;5092437;28;20405;-75
2022/02/09 11:19:45;;;;;;;4.47;1.90;;;;;;;10.20;100.00;101265.84;5091722;28;20044;-76
2022/02/09 11:22:17;;;;;;;2.95;2.00;;;;;;;10.19;100.00;101265.91;5092817;28;20044;-78
2022/02/09 11:24:47;;;;;;;6.47;1.90;;;;;;;10.17;100.00;101281.97;5076070;28;20075;-75
2022/02/09 11:27:26;;;;;;;5.85;2.00;;;;;;;10.26;100.00;101278.94;5092000;28;20067;-75
2022/02/09 11:30:12;;;;;;;4.20;1.90;;;;;;;10.13;100.00;101279.47;5070197;28;20048;-74
2022/02/09 11:33:09;;;;;;;2.92;1.70;;;;;;;10.16;100.00;101269.56;5091595;28;20151;-74
2022/02/09 11:35:42;;;;;;;3.80;1.73;;;;;;;10.09;100.00;101267.22;5091526;28;20114;-76
2022/02/09 11:38:18;;;;;;;3.65;1.98;;;;;;;10.18;100.00;101265.03;5092077;28;20058;-74
2022/02/09 11:41:08;;;;;;;3.97;1.88;;;;;;;10.23;100.00;101265.75;5071895;28;20040;-78
2022/02/09 12:10:21;;;;;;;4.05;1.92;;;;;;;10.30;100.00;101269.88;5089903;28;20051;-77
2022/02/09 12:12:57;;;;;;;3.10;1.85;;;;;;;10.22;100.00;101264.00;5076214;28;20385;-74
2022/02/09 12:16:02;;;;;;;3.75;2.05;;;;;;;10.22;100.00;101263.13;5091522;28;20048;-79
2022/02/09 12:18:35;;;;;;;4.57;1.85;;;;;;;10.31;100.00;101268.94;5071140;28;20045;-76
2022/02/09 12:21:21;;;;;;;3.30;1.88;;;;;;;10.32;100.00;101278.66;5092475;28;20051;-72
2022/02/09 12:23:49;;;;;;;3.92;1.98;;;;;;;10.23;100.00;101280.84;5095273;28;20483;-73
2022/02/09 12:26:20;;;;;;;3.95;1.80;;;;;;;10.27;100.00;101277.16;5095623;28;20071;-74
2022/02/09 12:28:54;;;;;;;3.60;2.05;;;;;;;10.20;100.00;101273.84;5085258;28;20054;-75
2022/02/09 12:31:25;;;;;;;3.38;2.03;;;;;;;10.32;100.00;101268.00;5095743;28;20051;-75
2022/02/09 12:33:54;;;;;;;4.07;1.85;;;;;;;10.35;100.00;101268.81;5074310;28;20056;-74
2022/02/09 12:36:26;;;;;;;3.92;2.13;;;;;;;10.27;100.00;101272.69;5092254;28;20413;-75
2022/02/09 12:38:58;;;;;;;4.90;2.03;;;;;;;10.30;100.00;101255.66;5095440;28;20055;-75
2022/02/09 12:41:28;;;;;;;4.30;2.38;;;;;;;10.45;100.00;101254.16;5095345;28;20371;-77
2022/02/09 12:44:00;;;;;;;4.07;2.22;;;;;;;10.53;100.00;101258.22;5095498;28;20048;-76
2022/02/09 12:46:32;;;;;;;4.68;2.15;;;;;;;10.61;100.00;101249.84;5075355;28;20053;-75
2022/02/09 12:49:07;;;;;;;5.80;2.47;;;;;;;10.59;100.00;101257.94;5095170;28;20040;-73
2022/02/09 12:51:39;;;;;;;6.20;2.80;;;;;;;10.54;100.00;101269.75;5095175;28;20051;-76
2022/02/09 12:54:09;;;;;;;4.82;2.28;;;;;;;10.59;100.00;101271.28;5095376;28;20040;-77
2022/02/09 12:56:39;;;;;;;4.00;2.40;;;;;;;10.54;100.00;101269.75;5076828;28;20135;-85
2022/02/09 12:59:10;;;;;;;3.50;2.15;;;;;;;10.52;100.00;101255.63;5094599;28;20078;-79
2022/02/09 13:01:44;;;;;;;3.92;2.60;;;;;;;10.58;100.00;101263.34;5094973;28;20040;-84
2022/02/09 13:04:27;;;;;;;4.72;2.47;;;;;;;10.62;100.00;101262.28;5095197;28;20036;-78
2022/02/09 13:06:59;;;;;;;3.58;2.10;;;;;;;10.58;100.00;101258.88;5079618;28;20042;-77
2022/02/09 13:09:28;;;;;;;4.00;2.30;;;;;;;10.75;100.00;101258.13;5094525;28;20102;-78
2022/02/09 13:11:56;;;;;;;4.05;2.30;;;;;;;10.70;100.00;101251.25;5095053;28;20040;-80
2022/02/09 13:14:31;;;;;;;4.47;2.25;;;;;;;10.84;100.00;101251.50;5094756;28;20051;-81
2022/02/09 13:17:24;;;;;;;4.35;2.00;;;;;;;10.83;100.00;101247.97;5094530;28;20036;-78
2022/02/09 13:23:03;;;;;;;3.47;2.25;;;;;;;10.83;100.00;101239.09;5094124;28;20466;-79
2022/02/09 13:25:59;;;;;;;3.15;1.98;;;;;;;11.04;100.00;101242.59;5094383;28;20036;-76
2022/02/09 13:52:14;;;;;;;3.67;1.80;;;;;;;11.41;100.00;101215.88;5093872;28;20536;-77
2022/02/09 14:04:13;;;;;;;4.60;2.40;;;;;;;11.23;100.00;101206.06;5011684;28;20046;-73
2022/02/09 14:12:28;;;;;;;7.43;2.38;;;;;;;11.18;100.00;101208.06;5093625;28;20036;-76
2022/02/09 14:15:24;;;;;;;4.63;2.10;;;;;;;11.18;100.00;101197.41;5078508;28;20047;-78
2022/02/09 14:32:58;;;;;;;3.60;2.00;;;;;;;10.98;100.00;101200.16;5092258;28;20048;-76
2022/02/09 14:54:38;;;;;;;5.20;2.40;;;;;;;10.69;100.00;101193.50;5090354;28;20051;-77
2022/02/09 14:57:10;;;;;;;3.38;1.70;;;;;;;10.73;100.00;101195.97;5093074;28;20458;-78
2022/02/09 14:59:51;;;;;;;4.18;1.95;;;;;;;10.85;100.00;101192.72;5091358;28;20047;-72
2022/02/09 15:02:33;;;;;;;4.50;1.80;;;;;;;10.81;100.00;101199.16;5092981;28;20130;-78
2022/02/09 15:08:09;;;;;;;4.60;1.80;;;;;;;10.79;100.00;101200.13;5067948;28;20052;-73
2022/02/09 15:10:43;;;;;;;4.80;2.03;;;;;;;10.78;100.00;101203.75;5095717;28;20040;-76
2022/02/09 15:13:30;;;;;;;4.13;1.88;;;;;;;10.76;100.00;101202.94;5092807;28;20401;-77
2022/02/09 15:16:07;;;;;;;5.05;2.22;;;;;;;10.61;100.00;101201.84;5092852;28;20136;-73
2022/02/09 15:19:05;;;;;;;7.07;2.22;;;;;;;10.60;100.00;101205.44;5072734;28;20048;-76
2022/02/09 15:24:23;;;;;;;3.22;1.98;;;;;;;10.63;100.00;101202.66;5092502;28;20093;-78
2022/02/09 15:26:54;;;;;;;3.70;1.80;;;;;;;10.59;100.00;101193.03;5076157;28;20423;-77
2022/02/09 15:29:22;;;;;;;3.40;1.77;;;;;;;10.42;100.00;101206.25;5091690;28;20481;-75
2022/02/09 15:31:54;;;;;;;4.32;2.00;;;;;;;10.34;100.00;101208.41;5092412;28;20051;-76
2022/02/09 15:34:27;;;;;;;4.45;2.10;;;;;;;10.34;100.00;101211.09;5092565;28;20051;-78
2022/02/09 15:37:10;;;;;;;4.10;1.83;;;;;;;10.54;100.00;101208.41;5092482;28;20032;-76
2022/02/09 15:39:43;;;;;;;4.47;2.17;;;;;;;10.58;100.00;101207.31;5088948;28;20043;-76
2022/02/09 15:56:23;;;;;;;6.88;1.90;;;;;;;9.86;100.00;101217.56;5094571;28;20044;-78
2022/02/09 16:24:04;;;;;;;5.82;2.20;;;;;;;9.36;100.00;101223.13;5095504;28;20097;-77
2022/02/09 16:38:05;;;;;;;5.57;2.40;;;;;;;8.96;100.00;101230.00;5095317;28;20048;-75
2022/02/09 16:46:16;;;;;;;4.10;2.40;;;;;;;8.49;100.00;101229.09;5073938;28;20048;-75
2022/02/09 16:48:52;;;;;;;5.88;2.80;;;;;;;8.45;100.00;101228.34;5094277;28;20063;-77
2022/02/09 16:51:22;;;;;;;4.63;2.55;;;;;;;8.44;100.00;101237.25;5094663;28;20040;-77
2022/02/09 16:56:56;;;;;;;7.00;2.55;;;;;;;8.56;100.00;101231.47;5094807;28;20036;-77
2022/02/09 17:19:02;;;;;;;7.13;3.10;;;;;;;8.98;100.00;101246.81;5079778;28;20036;-77
2022/02/09 17:21:32;;;;;;;5.50;2.97;;;;;;;8.98;100.00;101246.81;5094745;28;20051;-77
2022/02/09 17:24:03;;;;;;;7.60;2.80;;;;;;;8.94;100.00;101245.16;5094605;28;20075;-77
2022/02/09 17:26:32;;;;;;;9.15;2.90;;;;;;;8.94;100.00;101246.97;5094580;28;20040;-75
2022/02/09 17:29:04;;;;;;;7.28;3.03;;;;;;;8.87;100.00;101251.63;5094211;28;20172;-75
2022/02/09 17:31:43;;;;;;;6.15;2.83;;;;;;;8.89;100.00;101245.34;5094314;28;20071;-81
2022/02/09 17:34:40;;;;;;;5.57;2.80;;;;;;;8.87;100.00;101235.66;5094128;28;20131;-75
2022/02/09 17:37:32;;;;;;;5.57;2.42;;;;;;;8.80;100.00;101234.19;5080372;28;20480;-75
2022/02/09 17:53:57;;;;;;;5.68;2.53;;;;;;;8.93;100.00;101226.59;5093787;28;20044;-74
2022/02/09 17:56:27;;;;;;;6.22;2.55;;;;;;;8.93;100.00;101232.78;5093872;28;20066;-76
2022/02/09 17:59:00;;;;;;;5.60;2.53;;;;;;;8.89;100.00;101240.03;5093168;28;20085;-76
2022/02/09 18:01:28;;;;;;;5.85;2.55;;;;;;;8.86;100.00;101240.13;5093921;28;20503;-75
2022/02/09 18:03:59;;;;;;;7.25;2.80;;;;;;;8.85;100.00;101235.72;5093639;28;20495;-75
2022/02/09 18:06:31;;;;;;;5.95;2.90;;;;;;;8.75;100.00;101230.81;5093968;28;20071;-75
2022/02/09 18:09:05;;;;;;;8.27;2.95;;;;;;;8.82;100.00;101238.50;5093281;28;20032;-72
2022/02/09 18:11:51;;;;;;;7.55;3.00;;;;;;;8.73;100.00;101238.00;5093527;28;20173;-75
2022/02/09 18:25:50;;;;;;;8.55;2.88;;;;;;;8.50;100.00;101222.88;5080625;28;20052;-71
2022/02/09 18:31:11;;;;;;;6.55;2.88;;;;;;;8.14;100.00;101227.66;5079599;28;19924;-76
2022/02/09 18:34:07;;;;;;;6.53;3.10;;;;;;;7.95;100.00;101217.66;5093095;28;20047;-77
2022/02/09 18:45:04;;;;;;;7.78;3.53;;;;;;;7.66;100.00;101234.56;5077464;28;20123;-72
2022/02/09 18:48:00;;;;;;;6.05;3.40;;;;;;;7.70;100.00;101235.31;5093193;28;20037;-73
2022/02/09 19:04:27;;;;;;;10.02;4.72;;;;;;;7.08;100.00;101238.19;5091007;28;20490;-72
2022/02/09 19:07:16;;;;;;;15.32;5.22;;;;;;;7.04;100.00;101236.53;5077039;28;20044;-72
2022/02/09 19:18:32;;;;;;;19.52;8.98;;;;;;;6.67;100.00;101234.97;5060574;28;20058;-75
2022/02/09 19:26:49;;;;;;;29.00;11.25;;;;;;;6.51;100.00;101241.59;5092260;28;20325;-77
2022/02/09 19:32:31;;;;;;;31.98;13.07;;;;;;;6.40;100.00;101246.34;5091840;28;20067;-73
2022/02/09 19:40:55;;;;;;;37.28;14.55;;;;;;;6.30;100.00;101241.28;5092574;28;20067;-73
2022/02/09 19:46:19;;;;;;;24.00;11.95;;;;;;;6.24;100.00;101236.13;5092301;28;20479;-73
2022/02/09 19:49:01;;;;;;;30.20;12.05;;;;;;;6.21;100.00;101233.56;5075529;28;20112;-72
2022/02/09 19:51:45;;;;;;;28.48;12.00;;;;;;;6.15;100.00;101239.03;5092380;28;20059;-72
2022/02/09 19:54:27;;;;;;;;;;;;;;;6.02;100.00;101237.63;5092644;28;20091;-71
2022/02/09 19:57:02;;;;;;;25.55;11.20;;;;;;;5.93;100.00;101243.16;5076446;28;19924;-76
2022/02/09 19:59:35;;;;;;;26.85;12.68;;;;;;;5.83;100.00;101237.16;5091879;28;20040;-77
2022/02/09 20:02:07;;;;;;;24.02;11.77;;;;;;;5.80;100.00;101228.44;5091513;28;20048;-78
2022/02/09 20:04:38;;;;;;;23.20;10.30;;;;;;;5.89;100.00;101236.16;5091885;28;20508;-76
2022/02/09 20:07:08;;;;;;;24.08;12.32;;;;;;;5.91;100.00;101223.78;5091780;28;20036;-77
2022/02/09 20:09:37;;;;;;;21.63;11.75;;;;;;;6.11;100.00;101234.72;5091876;28;20045;-78
2022/02/09 20:12:11;;;;;;;25.35;12.40;;;;;;;5.90;100.00;101233.50;5092334;28;20052;-78
2022/02/09 20:14:45;;;;;;;32.72;13.27;;;;;;;5.84;100.00;101238.03;5092124;28;20477;-75
2022/02/09 20:17:14;;;;;;;29.95;12.73;;;;;;;5.76;100.00;101240.88;5091582;28;20089;-74
2022/02/09 20:19:52;;;;;;;24.45;13.38;;;;;;;5.63;100.00;101234.16;5091578;28;20052;-80
2022/02/09 20:22:22;;;;;;;27.95;12.95;;;;;;;5.44;100.00;101233.72;5091283;28;20047;-76
2022/02/09 20:24:52;;;;;;;33.28;14.23;;;;;;;5.40;100.00;101235.56;5091329;28;20093;-74
2022/02/09 20:27:22;;;;;;;33.45;14.73;;;;;;;5.43;100.00;101234.63;5091925;28;20048;-79